Latest Weather Observations for Spitfire Channel

IDQ60801

Issued at 1:05 pm EST Sunday 20 April 2014 (issued every 30 minutes, with the page automatically refreshed every 10 minutes)

About weather observations | Map of weather stations | Latest weather observations for QLD | Other Formats
Station Details ID: 040927 Name: SPITFIRE CHANNEL BEACON Lat: -27.05 Lon: 153.27 Height: 7.0 m
Data from the previous 72 hours. | See also: Recent months for locations in Queensland
Date/Time
EST
Temp
°C
App
Temp
°C
Dew
Point
Rel
Hum
%
Delta-T
°C
Wind Press
QNH
hPa
Press
MSL
hPa
Rain
since 9 am
mm
Dir
 
Spd
km/h
Gust
km/h
Spd
kts
Gust
kts
20/01:00pm - - - - - E 2 4 1 2 - - -
20/12:30pm - - - - - ESE 2 4 1 2 - - -
20/12:00pm - - - - - SE 6 7 3 4 - - -
20/11:30am - - - - - SSE 9 11 5 6 - - -
20/11:00am - - - - - S 11 13 6 7 - - -
20/10:30am - - - - - S 11 13 6 7 - - -
20/10:00am - - - - - SSW 11 13 6 7 - - -
20/09:30am - - - - - S 11 15 6 8 - - -
20/09:00am - - - - - SSW 13 15 7 8 - - -
20/08:30am - - - - - SSW 15 19 8 10 - - -
20/08:00am - - - - - SSW 13 17 7 9 - - -
20/07:30am - - - - - SSW 13 17 7 9 - - -
20/07:00am - - - - - SSW 11 13 6 7 - - -
20/06:30am - - - - - SSW 9 13 5 7 - - -
20/06:00am - - - - - S 11 13 6 7 - - -
20/05:30am - - - - - SSW 13 15 7 8 - - -
20/05:00am - - - - - S 11 13 6 7 - - -
20/04:30am - - - - - S 11 15 6 8 - - -
20/04:00am - - - - - S 7 9 4 5 - - -
20/03:30am - - - - - SSW 7 7 4 4 - - -
20/03:00am - - - - - SW 6 7 3 4 - - -
20/02:30am - - - - - WSW 9 11 5 6 - - -
20/02:00am - - - - - WSW 7 11 4 6 - - -
20/01:30am - - - - - WSW 7 9 4 5 - - -
20/01:00am - - - - - WSW 6 7 3 4 - - -
20/12:30am - - - - - W 7 11 4 6 - - -
20/12:00am - - - - - ENE 7 9 4 5 - - -
 
Date/Time
EST
Temp
°C
App
Temp
°C
Dew
Point
Rel
Hum
%
Delta-T
°C
Wind Press
QNH
hPa
Press
MSL
hPa
Rain
since 9 am
mm
Dir
 
Spd
km/h
Gust
km/h
Spd
kts
Gust
kts
19/11:30pm - - - - - ENE 9 11 5 6 - - -
19/11:00pm - - - - - ENE 7 9 4 5 - - -
19/10:30pm - - - - - NE 9 13 5 7 - - -
19/10:00pm - - - - - NNE 11 13 6 7 - - -
19/09:30pm - - - - - NNE 11 13 6 7 - - -
19/09:00pm - - - - - NNE 13 15 7 8 - - -
19/08:30pm - - - - - NE 15 17 8 9 - - -
19/08:00pm - - - - - NE 13 17 7 9 - - -
19/07:30pm - - - - - NE 15 19 8 10 - - -
19/07:00pm - - - - - NE 17 20 9 11 - - -
19/06:30pm - - - - - NNE 17 19 9 10 - - -
19/06:00pm - - - - - NNE 15 19 8 10 - - -
19/05:30pm - - - - - NNE 17 19 9 10 - - -
19/05:00pm - - - - - NNE 15 17 8 9 - - -
19/04:30pm - - - - - NE 13 19 7 10 - - -
19/04:00pm - - - - - ENE 7 9 4 5 - - -
19/03:30pm - - - - - ENE 7 9 4 5 - - -
19/03:00pm - - - - - E 9 9 5 5 - - -
19/02:30pm - - - - - E 9 11 5 6 - - -
19/02:00pm - - - - - ESE 9 11 5 6 - - -
19/01:30pm - - - - - ESE 9 9 5 5 - - -
19/01:00pm - - - - - ESE 6 7 3 4 - - -
19/12:30pm - - - - - SE 6 7 3 4 - - -
19/12:00pm - - - - - SSE 7 9 4 5 - - -
19/11:30am - - - - - S 11 15 6 8 - - -
19/11:00am - - - - - S 11 13 6 7 - - -
19/10:30am - - - - - S 11 15 6 8 - - -
19/10:00am - - - - - SSW 9 13 5 7 - - -
19/09:30am - - - - - SSW 11 15 6 8 - - -
19/09:00am - - - - - SSW 11 15 6 8 - - -
19/08:30am - - - - - SSW 9 11 5 6 - - -
19/08:00am - - - - - SW 7 11 4 6 - - -
19/07:30am - - - - - SW 7 11 4 6 - - -
19/07:00am - - - - - SW 9 13 5 7 - - -
19/06:30am - - - - - SW 7 11 4 6 - - -
19/06:00am - - - - - W 6 7 3 4 - - -
19/05:30am - - - - - W 4 6 2 3 - - -
19/05:00am - - - - - W 6 7 3 4 - - -
19/04:30am - - - - - W 7 9 4 5 - - -
19/04:00am - - - - - SW 9 11 5 6 - - -
19/03:30am - - - - - WSW 13 15 7 8 - - -
19/03:00am - - - - - WNW 15 19 8 10 - - -
19/02:30am - - - - - WNW 15 19 8 10 - - -
19/02:00am - - - - - WNW 17 20 9 11 - - -
19/01:30am - - - - - NW 22 26 12 14 - - -
19/01:00am - - - - - NW 24 28 13 15 - - -
19/12:30am - - - - - NW 22 26 12 14 - - -
19/12:00am - - - - - NW 17 20 9 11 - - -
 
Date/Time
EST
Temp
°C
App
Temp
°C
Dew
Point
Rel
Hum
%
Delta-T
°C
Wind Press
QNH
hPa
Press
MSL
hPa
Rain
since 9 am
mm
Dir
 
Spd
km/h
Gust
km/h
Spd
kts
Gust
kts
18/11:30pm - - - - - NW 15 19 8 10 - - -
18/11:00pm - - - - - WNW 15 17 8 9 - - -
18/10:30pm - - - - - WNW 17 20 9 11 - - -
18/10:00pm - - - - - NNW 24 28 13 15 - - -
18/09:30pm - - - - - N 26 30 14 16 - - -
18/09:00pm - - - - - N 24 28 13 15 - - -
18/08:30pm - - - - - N 22 26 12 14 - - -
18/08:00pm - - - - - N 22 26 12 14 - - -
18/07:30pm - - - - - N 22 26 12 14 - - -
18/07:00pm - - - - - N 19 20 10 11 - - -
18/06:30pm - - - - - N 20 22 11 12 - - -
18/06:00pm - - - - - NNE 19 22 10 12 - - -
18/05:30pm - - - - - NNE 19 20 10 11 - - -
18/05:00pm - - - - - NNE 19 22 10 12 - - -
18/04:30pm - - - - - NE 17 19 9 10 - - -
18/04:00pm - - - - - NE 17 20 9 11 - - -
18/03:30pm - - - - - NE 15 19 8 10 - - -
18/03:00pm - - - - - NE 15 17 8 9 - - -
18/02:30pm - - - - - NNE 13 15 7 8 - - -
18/02:00pm - - - - - ENE 9 9 5 5 - - -
18/01:30pm - - - - - E 7 9 4 5 - - -
18/01:00pm - - - - - E 6 9 3 5 - - -
18/12:30pm - - - - - SE 4 6 2 3 - - -
18/12:00pm - - - - - SSE 4 7 2 4 - - -
18/11:30am - - - - - SSE 4 4 2 2 - - -
18/11:00am - - - - - SSE 6 6 3 3 - - -
18/10:30am - - - - - S 7 9 4 5 - - -
18/10:00am - - - - - S 11 15 6 8 - - -
18/09:30am - - - - - S 13 17 7 9 - - -
18/09:00am - - - - - SSW 15 19 8 10 - - -
18/08:30am - - - - - S 15 19 8 10 - - -
18/08:00am - - - - - S 13 17 7 9 - - -
18/07:30am - - - - - S 13 17 7 9 - - -
18/07:00am - - - - - S 13 15 7 8 - - -
18/06:30am - - - - - S 11 15 6 8 - - -
18/06:00am - - - - - S 11 15 6 8 - - -
18/05:30am - - - - - S 13 17 7 9 - - -
18/05:00am - - - - - S 11 13 6 7 - - -
18/04:30am - - - - - S 9 11 5 6 - - -
18/04:00am - - - - - S 11 13 6 7 - - -
18/03:30am - - - - - S 13 17 7 9 - - -
18/03:00am - - - - - SSW 15 17 8 9 - - -
18/02:30am - - - - - SSW 13 17 7 9 - - -
18/02:00am - - - - - SW 11 13 6 7 - - -
18/01:30am - - - - - SW 9 11 5 6 - - -
18/01:00am - - - - - SW 6 9 3 5 - - -
18/12:30am - - - - - WSW 7 7 4 4 - - -
18/12:00am - - - - - W 11 13 6 7 - - -
 
Date/Time
EST
Temp
°C
App
Temp
°C
Dew
Point
Rel
Hum
%
Delta-T
°C
Wind Press
QNH
hPa
Press
MSL
hPa
Rain
since 9 am
mm
Dir
 
Spd
km/h
Gust
km/h
Spd
kts
Gust
kts
17/11:30pm - - - - - W 9 11 5 6 - - -
17/11:00pm - - - - - CALM 0 0 0 0 - - -
17/10:30pm - - - - - ESE 2 4 1 2 - - -
17/10:00pm - - - - - ESE 2 4 1 2 - - -
17/09:30pm - - - - - ENE 6 7 3 4 - - -
17/09:00pm - - - - - ENE 6 9 3 5 - - -
17/08:30pm - - - - - ENE 7 9 4 5 - - -
17/08:00pm - - - - - E 9 11 5 6 - - -
17/07:30pm - - - - - ENE 11 13 6 7 - - -
17/07:00pm - - - - - ENE 11 15 6 8 - - -
17/06:30pm - - - - - ENE 13 15 7 8 - - -
17/06:00pm - - - - - ENE 15 19 8 10 - - -
17/05:30pm - - - - - ENE 17 19 9 10 - - -
17/05:00pm - - - - - E 19 20 10 11 - - -
17/04:30pm - - - - - E 17 20 9 11 - - -
17/04:00pm - - - - - ENE 9 9 5 5 - - -
17/03:30pm - - - - - E 11 13 6 7 - - -
17/03:00pm - - - - - E 11 15 6 8 - - -
17/02:30pm - - - - - E 13 15 7 8 - - -
17/02:00pm - - - - - ESE 15 17 8 9 - - -
17/01:30pm - - - - - SE 15 17 8 9 - - -

Other Formats:

Comma delimited format used in spreadsheet applications
http://www.bom.gov.au/fwo/IDQ60801/IDQ60801.94581.axf

JavaScript Object Notation format (JSON) in row-major order
http://www.bom.gov.au/fwo/IDQ60801/IDQ60801.94581.json